EDGS 200120Z AUTO 28003KT 230V310 9999 // SCT056/// 15/13 Q//// EDGS 200050Z AUTO 30006KT 9999 // SCT056/// 14/13 Q//// EDGS 200020Z AUTO 31006KT 9999 // FEW082/// 15/12 Q//// EDGS 192350Z AUTO 29006KT 9999 // FEW062/// 15/13 Q//// EDGS 192320Z AUTO 30006KT 9999 // SCT090/// 15/12 Q//// EDGS 192250Z AUTO 31006KT 9999 // FEW094/// 15/12 Q//// EDGS 192220Z AUTO 30006KT 9999 // SCT095/// 15/12 Q//// EDGS 192150Z AUTO 29006KT 9999 // BKN099/// 15/11 Q//// EDGS 192120Z AUTO 28005KT 9999 // NCD 15/13 Q//// EDGS 192050Z AUTO 31007KT 9999 // NCD 14/14 Q//// EDGS 192020Z AUTO 28006KT 6000 // NCD 15/14 Q//// EDGS 191950Z AUTO 27006KT 9999 // FEW100/// 15/14 Q//// EDGS 191920Z AUTO 26006KT 8000 // FEW001/// BKN120/// 15/15 Q//// EDGS 191850Z AUTO 27007KT 230V310 9999 // FEW002/// 16/15 Q//// EDGS 191820Z AUTO 23006KT 180V250 9999 // SCT200/// 17/15 Q//// EDGS 191750Z 20005KT 160V220 9999 FEW015 15/14 Q1021 EDGS 191720Z 20007KT 9999 FEW011 16/15 Q1022 EDGS 191650Z 22004KT 180V260 9999 TS FEW011CB 16/15 Q1021 EDGS 191620Z 02006KT 9999 -TSRA FEW005 SCT008CB 15/15 Q1020 RERA EDGS 191550Z 34014KT 300V020 8000 TSRA FEW005 SCT012 OVC031CB 16/15 Q1021 EDGS 191520Z 30022KT 240V330 9999 SHRA FEW026 SCT030CB 19/14 Q1019 EDGS 191450Z 19012KT 160V230 CAVOK 24/14 Q1019 EDGS 191420Z 18011KT 120V210 CAVOK 24/14 Q1019 EDGS 191350Z 18012KT 140V210 CAVOK 24/14 Q1020 EDGS 191320Z 16010KT 130V210 CAVOK 24/13 Q1020 EDGS 191250Z 16010KT 130V200 CAVOK 23/13 Q1020 EDGS 191220Z 14010KT CAVOK 22/13 Q1020 EDGS 191150Z 14009KT 110V170 CAVOK 22/13 Q1020 EDGS 191120Z 15007KT 110V200 CAVOK 22/12 Q1021 EDGS 191050Z 17008KT 130V200 CAVOK 21/11 Q1021 EDGS 191020Z 17009KT 140V200 CAVOK 21/11 Q1021 EDGS 190950Z 18008KT 140V220 CAVOK 21/10 Q1021 EDGS 190920Z 16009KT 140V200 CAVOK 21/10 Q1021 EDGS 190850Z 17010KT 130V200 CAVOK 21/09 Q1021 EDGS 190820Z 15011KT CAVOK 20/08 Q1021 EDGS 190750Z 13009KT CAVOK 19/11 Q1021 EDGS 190720Z 12009KT CAVOK 18/11 Q1021 EDGS 190650Z 14007KT CAVOK 18/11 Q1022 EDGS 190620Z 14007KT CAVOK 17/11 Q1022 EDGS 190550Z 13008KT CAVOK 16/11 Q1021 EDGS 190520Z 13008KT CAVOK 15/10 Q1021 EDGS 190450Z AUTO 13008KT 9999 // NCD 14/11 Q//// EDGS 190420Z AUTO 13006KT 9999 // NCD 15/11 Q//// EDGS 190350Z AUTO 13007KT 9999 // FEW250/// 15/10 Q//// EDGS 190320Z AUTO 13008KT 9999 // NCD 16/11 Q//// EDGS 190250Z AUTO 14008KT 9999 // NCD 16/11 Q//// EDGS 190220Z AUTO 15008KT 9999 // NCD 17/10 Q//// EDGS 190150Z AUTO 16008KT 9999 // NCD 18/10 Q//// EDGS 190120Z AUTO 17009KT 9999 // NCD 18/11 Q//// EDGS 190050Z AUTO 16007KT 9999 // NCD 18/10 Q//// EDGS 190020Z AUTO 15008KT 9999 // NCD 18/11 Q//// EDGS 182350Z AUTO 15009KT 9999 // NCD 18/11 Q//// EDGS 182320Z AUTO 15009KT 9999 // NCD 18/11 Q//// EDGS 182250Z AUTO 14008KT 9999 // NCD 19/11 Q//// EDGS 182220Z AUTO 15007KT 9999 // NCD 19/11 Q//// EDGS 182150Z AUTO 15008KT 9999 // NCD 19/11 Q//// EDGS 182120Z AUTO 15008KT 9999 // NCD 19/11 Q//// EDGS 182050Z AUTO 14007KT 9999 // NCD 19/11 Q//// EDGS 182020Z AUTO 14006KT 9999 // NCD 19/11 Q//// EDGS 181950Z AUTO 14006KT 9999 // NCD 19/11 Q//// EDGS 181920Z AUTO 13006KT 9999 // NCD 19/11 Q//// EDGS 181850Z AUTO 13007KT 9999 // NCD 20/12 Q//// EDGS 181820Z AUTO 13006KT 9999 // NCD 21/12 Q//// EDGS 181750Z 14005KT CAVOK 22/12 Q1023 EDGS 181720Z 14004KT 110V170 CAVOK 23/12 Q1023 EDGS 181650Z 14007KT 110V170 CAVOK 23/11 Q1023 EDGS 181620Z 15007KT 110V200 CAVOK 24/11 Q1023 EDGS 181550Z 20008KT 170V230 CAVOK 24/10 Q1023 EDGS 181520Z 16008KT 110V210 CAVOK 24/10 Q1023 EDGS 181450Z 17010KT 120V200 CAVOK 24/09 Q1023 EDGS 181420Z 15008KT 120V190 CAVOK 23/10 Q1023 EDGS 181350Z 15008KT CAVOK 24/10 Q1024

METAR Messwerte "SIEGERLAND" EDGS

Zurück zur Übersicht

Ortsname
Ländercode / m ü. NN
Zeit Temperatur Taupunkt Rel.
Luftfeuchte
Luftdruck:
Altimeter
NN
Station
Wind in Beaufort
(Knoten)
Sichtweite
(Meter)
Wolken
(Meter über Grund)
Wettererscheinung
SIEGERLAND
DE 595
Fr 20.05. 03:20151388 % 
 
 
W 2 (3)
SW - NW
>= 10000Wolkig (1700) 
SIEGERLAND
DE 595
Fr 20.05. 02:50141394 % 
 
 
WNW 2 (6)>= 10000Wolkig (1700) 
SIEGERLAND
DE 595
Fr 20.05. 02:20151282 % 
 
 
NW 2 (6)>= 10000Leicht bewölkt (2500) 
SIEGERLAND
DE 595
Fr 20.05. 01:50151388 % 
 
 
WNW 2 (6)>= 10000Leicht bewölkt (1900) 
SIEGERLAND
DE 595
Fr 20.05. 01:20151282 % 
 
 
WNW 2 (6)>= 10000Wolkig (2700) 
SIEGERLAND
DE 595
Fr 20.05. 00:50151282 % 
 
 
NW 2 (6)>= 10000Leicht bewölkt (2900) 
SIEGERLAND
DE 595
Fr 20.05. 00:20151282 % 
 
 
WNW 2 (6)>= 10000Wolkig (2900) 
SIEGERLAND
DE 595
Do 19.05. 23:50151177 % 
 
 
WNW 2 (6)>= 10000Stark bewölkt (3000) 
SIEGERLAND
DE 595
Do 19.05. 23:20151388 % 
 
 
W 2 (5)>= 10000  
SIEGERLAND
DE 595
Do 19.05. 22:501414100 % 
 
 
NW 3 (7)>= 10000  
SIEGERLAND
DE 595
Do 19.05. 22:20151494 % 
 
 
W 2 (6)6000  
SIEGERLAND
DE 595
Do 19.05. 21:50151494 % 
 
 
W 2 (6)>= 10000Leicht bewölkt (3000) 
SIEGERLAND
DE 595
Do 19.05. 21:201515100 % 
 
 
W 2 (6)8000Stark bewölkt (3700)
Leicht bewölkt (30)
 
SIEGERLAND
DE 595
Do 19.05. 20:50161594 % 
 
 
W 3 (7)
SW - NW
>= 10000Leicht bewölkt (61) 
SIEGERLAND
DE 595
Do 19.05. 20:20171588 % 
 
 
SW 2 (6)
S - WSW
>= 10000Wolkig (6100) 
SIEGERLAND
DE 595
Do 19.05. 19:50151494 %1021
1021
951
SSW 2 (5)
SSO - SW
>= 10000Leicht bewölkt (460) 
SIEGERLAND
DE 595
Do 19.05. 19:20161594 %1022
1022
952
SSW 3 (7)>= 10000Leicht bewölkt (340) 
SIEGERLAND
DE 595
Do 19.05. 18:50161594 %1021
1021
951
SW 2 (4)
S - W
>= 10000Leicht bewölkt Cb (340) 
SIEGERLAND
DE 595
Do 19.05. 18:201515100 %1020
1020
950
NNO 2 (6)>= 10000Wolkig Cb (240)
Leicht bewölkt (150)
Gewitter mit Regen (schwach)
SIEGERLAND
DE 595
Do 19.05. 17:50161594 %1021
1021
951
NNW 4 (14)
WNW - NNO
8000Bedeckt Cb (940)
Wolkig (370)
Leicht bewölkt (150)
Gewitter mit Regen
SIEGERLAND
DE 595
Do 19.05. 17:20191473 %1019
1018
949
WNW 6 (22)
WSW - NNW
>= 10000Wolkig Cb (910)
Leicht bewölkt (790)
Regen-Schauer
SIEGERLAND
DE 595
Do 19.05. 16:50241454 %1019
1017
949
S 4 (12)
SSO - SW
>= 10000Nicht signifikant 
SIEGERLAND
DE 595
Do 19.05. 16:20241454 %1019
1017
949
S 4 (11)
OSO - SSW
>= 10000Nicht signifikant 
SIEGERLAND
DE 595
Do 19.05. 15:50241454 %1020
1018
950
S 4 (12)
SO - SSW
>= 10000Nicht signifikant 
SIEGERLAND
DE 595
Do 19.05. 15:20241350 %1020
1018
950
SSO 3 (10)
SO - SSW
>= 10000Nicht signifikant 
SIEGERLAND
DE 595
Do 19.05. 14:50231353 %1020
1018
950
SSO 3 (10)
SO - SSW
>= 10000Nicht signifikant 
SIEGERLAND
DE 595
Do 19.05. 14:20221357 %1020
1018
950
SO 3 (10)>= 10000Nicht signifikant 
SIEGERLAND
DE 595
Do 19.05. 13:50221357 %1020
1018
950
SO 3 (9)
OSO - S
>= 10000Nicht signifikant 
SIEGERLAND
DE 595
Do 19.05. 13:20221253 %1021
1019
951
SSO 3 (7)
OSO - SSW
>= 10000Nicht signifikant 
SIEGERLAND
DE 595
Do 19.05. 12:50211153 %1021
1020
951
S 3 (8)
SO - SSW
>= 10000Nicht signifikant 
SIEGERLAND
DE 595
Do 19.05. 12:20211153 %1021
1020
951
S 3 (9)
SO - SSW
>= 10000Nicht signifikant 
SIEGERLAND
DE 595
Do 19.05. 11:50211049 %1021
1020
951
S 3 (8)
SO - SW
>= 10000Nicht signifikant 
SIEGERLAND
DE 595
Do 19.05. 11:20211049 %1021
1020
951
SSO 3 (9)
SO - SSW
>= 10000Nicht signifikant 
SIEGERLAND
DE 595
Do 19.05. 10:5021946 %1021
1020
951
S 3 (10)
SO - SSW
>= 10000Nicht signifikant 
SIEGERLAND
DE 595
Do 19.05. 10:2020846 %1021
1020
951
SSO 4 (11)>= 10000Nicht signifikant 
SIEGERLAND
DE 595
Do 19.05. 09:50191160 %1021
1020
951
SO 3 (9)>= 10000Nicht signifikant 
SIEGERLAND
DE 595
Do 19.05. 09:20181164 %1021
1020
951
OSO 3 (9)>= 10000Nicht signifikant 
SIEGERLAND
DE 595
Do 19.05. 08:50181164 %1022
1021
952
SO 3 (7)>= 10000Nicht signifikant 
SIEGERLAND
DE 595
Do 19.05. 08:20171168 %1022
1022
952
SO 3 (7)>= 10000Nicht signifikant 
SIEGERLAND
DE 595
Do 19.05. 07:50161172 %1021
1021
951
SO 3 (8)>= 10000Nicht signifikant 
SIEGERLAND
DE 595
Do 19.05. 07:20151072 %1021
1021
951
SO 3 (8)>= 10000Nicht signifikant 
SIEGERLAND
DE 595
Do 19.05. 06:50141182 % 
 
 
SO 3 (8)>= 10000  
SIEGERLAND
DE 595
Do 19.05. 06:20151177 % 
 
 
SO 2 (6)>= 10000  
SIEGERLAND
DE 595
Do 19.05. 05:50151072 % 
 
 
SO 3 (7)>= 10000Leicht bewölkt (7600) 
SIEGERLAND
DE 595
Do 19.05. 05:20161172 % 
 
 
SO 3 (8)>= 10000  
SIEGERLAND
DE 595
Do 19.05. 04:50161172 % 
 
 
SO 3 (8)>= 10000  
SIEGERLAND
DE 595
Do 19.05. 04:20171063 % 
 
 
SSO 3 (8)>= 10000  
SIEGERLAND
DE 595
Do 19.05. 03:50181059 % 
 
 
SSO 3 (8)>= 10000  
SIEGERLAND
DE 595
Do 19.05. 03:20181164 % 
 
 
S 3 (9)>= 10000  
SIEGERLAND
DE 595
Do 19.05. 02:50181059 % 
 
 
SSO 3 (7)>= 10000  
SIEGERLAND
DE 595
Do 19.05. 02:20181164 % 
 
 
SSO 3 (8)>= 10000  
SIEGERLAND
DE 595
Do 19.05. 01:50181164 % 
 
 
SSO 3 (9)>= 10000  
SIEGERLAND
DE 595
Do 19.05. 01:20181164 % 
 
 
SSO 3 (9)>= 10000  
SIEGERLAND
DE 595
Do 19.05. 00:50191160 % 
 
 
SO 3 (8)>= 10000  
SIEGERLAND
DE 595
Do 19.05. 00:20191160 % 
 
 
SSO 3 (7)>= 10000  
SIEGERLAND
DE 595
Mi 18.05. 23:50191160 % 
 
 
SSO 3 (8)>= 10000  
SIEGERLAND
DE 595
Mi 18.05. 23:20191160 % 
 
 
SSO 3 (8)>= 10000  
SIEGERLAND
DE 595
Mi 18.05. 22:50191160 % 
 
 
SO 3 (7)>= 10000  
SIEGERLAND
DE 595
Mi 18.05. 22:20191160 % 
 
 
SO 2 (6)>= 10000  
SIEGERLAND
DE 595
Mi 18.05. 21:50191160 % 
 
 
SO 2 (6)>= 10000  
SIEGERLAND
DE 595
Mi 18.05. 21:20191160 % 
 
 
SO 2 (6)>= 10000  
SIEGERLAND
DE 595
Mi 18.05. 20:50201260 % 
 
 
SO 3 (7)>= 10000  
SIEGERLAND
DE 595
Mi 18.05. 20:20211256 % 
 
 
SO 2 (6)>= 10000  
SIEGERLAND
DE 595
Mi 18.05. 19:50221253 %1023
1021
953
SO 2 (5)>= 10000Nicht signifikant 
SIEGERLAND
DE 595
Mi 18.05. 19:20231250 %1023
1021
953
SO 2 (4)
OSO - S
>= 10000Nicht signifikant 
SIEGERLAND
DE 595
Mi 18.05. 18:50231147 %1023
1021
953
SO 3 (7)
OSO - S
>= 10000Nicht signifikant 
SIEGERLAND
DE 595
Mi 18.05. 18:20241144 %1023
1021
953
SSO 3 (7)
OSO - SSW
>= 10000Nicht signifikant 
SIEGERLAND
DE 595
Mi 18.05. 17:50241041 %1023
1021
953
SSW 3 (8)
S - SW
>= 10000Nicht signifikant 
SIEGERLAND
DE 595
Mi 18.05. 17:20241041 %1023
1021
953
SSO 3 (8)
OSO - SSW
>= 10000Nicht signifikant 
SIEGERLAND
DE 595
Mi 18.05. 16:5024938 %1023
1021
953
S 3 (10)
OSO - SSW
>= 10000Nicht signifikant 
SIEGERLAND
DE 595
Mi 18.05. 16:20231044 %1023
1021
953
SSO 3 (8)
OSO - S
>= 10000Nicht signifikant 
SIEGERLAND
DE 595
Mi 18.05. 15:50241041 %1024
1022
954
SSO 3 (8)>= 10000Nicht signifikant 

Altimeter: Einstellung am Altimeter (Höhenmesser), die Höhe 0 muss auf diesen Luftdruckwert zeigen, damit das Gerät die Stationshöhe richtig anzeigt.

NN: Luftdruck reduziert auf "Normal Null", auf Meereshöhe, dieser von der Temperatur abhängige Wert wird bisweilen unkorrekt einfach als "Luftdruck" bezeichnet. Eigentlich nur eine fiktive Größe, die es erlaubt, Stationen auf unterschiedlichen Höhen miteinander zu vergleichen.

Station: Realer Luftdruck an der Station.